Time,TemperatureF,DewpointF,PressureIn,WindDirection,WindDirectionDegrees,WindSpeedMPH,WindSpeedGustMPH,Humidity,HourlyPrecipIn,Conditions,Clouds,dailyrainin,SoftwareType,DateUTC
2013-06-12 00:02:00,72.5,65.4,29.84,South,180,0.0,1.1,78,0.00,,,0.00,WUHU216HW,2013-06-12 05:02:00,
2013-06-12 00:07:00,72.4,64.7,29.84,South,180,0.4,1.1,77,0.00,,,0.00,WUHU216HW,2013-06-12 05:07:00,
2013-06-12 00:12:00,72.4,64.7,29.84,South,180,0.4,0.4,77,0.00,,,0.00,WUHU216HW,2013-06-12 05:12:00,
2013-06-12 00:17:00,72.4,64.7,29.84,South,180,0.0,0.9,77,0.00,,,0.00,WUHU216HW,2013-06-12 05:17:00,
2013-06-12 00:22:00,72.2,65.0,29.84,South,180,0.0,0.9,78,0.00,,,0.00,WUHU216HW,2013-06-12 05:22:00,
2013-06-12 00:27:00,72.0,64.4,29.84,South,180,0.0,0.0,77,0.00,,,0.00,WUHU216HW,2013-06-12 05:27:00,
2013-06-12 00:32:00,72.0,64.8,29.84,South,180,0.0,0.0,78,0.00,,,0.00,WUHU216HW,2013-06-12 05:32:00,
2013-06-12 00:37:00,71.8,64.6,29.84,South,180,0.0,0.0,78,0.00,,,0.00,WUHU216HW,2013-06-12 05:37:00,
2013-06-12 00:42:00,71.8,64.6,29.84,South,180,0.0,0.0,78,0.00,,,0.00,WUHU216HW,2013-06-12 05:42:00,
2013-06-12 00:47:00,71.8,64.6,29.84,South,180,0.0,0.0,78,0.00,,,0.00,WUHU216HW,2013-06-12 05:47:00,
2013-06-12 00:52:00,71.8,65.0,29.84,South,180,0.0,0.0,79,0.00,,,0.00,WUHU216HW,2013-06-12 05:52:00,
2013-06-12 00:57:00,71.6,64.8,29.84,South,180,0.0,0.0,79,0.00,,,0.00,WUHU216HW,2013-06-12 05:57:00,
2013-06-12 01:02:00,71.6,64.8,29.84,South,180,0.9,1.1,79,0.00,,,0.00,WUHU216HW,2013-06-12 06:02:00,
2013-06-12 01:07:00,71.6,64.8,29.85,South,180,0.0,1.1,79,0.00,,,0.00,WUHU216HW,2013-06-12 06:07:00,
2013-06-12 01:12:00,71.3,64.8,29.85,South,180,0.0,0.0,80,0.00,,,0.00,WUHU216HW,2013-06-12 06:12:00,
2013-06-12 01:17:00,71.3,64.8,29.84,South,180,0.0,0.0,80,0.00,,,0.00,WUHU216HW,2013-06-12 06:17:00,
2013-06-12 01:22:00,71.1,64.6,29.84,South,180,0.0,0.0,80,0.00,,,0.00,WUHU216HW,2013-06-12 06:22:00,
2013-06-12 01:27:00,70.9,64.4,29.84,South,180,0.0,0.0,80,0.00,,,0.00,WUHU216HW,2013-06-12 06:27:00,
2013-06-12 01:32:00,70.9,64.4,29.85,South,180,0.0,0.2,80,0.00,,,0.00,WUHU216HW,2013-06-12 06:32:00,
2013-06-12 01:37:00,71.3,65.5,29.84,NNE,23,1.3,1.3,82,0.00,,,0.00,WUHU216HW,2013-06-12 06:37:00,
2013-06-12 01:42:00,71.8,66.7,29.84,NE,45,0.0,1.3,84,0.00,,,0.00,WUHU216HW,2013-06-12 06:42:00,
2013-06-12 01:47:00,72.4,67.6,29.84,SSE,158,1.6,3.8,85,0.00,,,0.00,WUHU216HW,2013-06-12 06:47:00,
2013-06-12 01:52:00,72.7,68.0,29.84,SE,135,0.7,3.8,85,0.00,,,0.00,WUHU216HW,2013-06-12 06:52:00,
2013-06-12 01:57:00,72.9,67.8,29.84,ESE,113,0.4,1.6,84,0.00,,,0.00,WUHU216HW,2013-06-12 06:57:00,
2013-06-12 02:02:00,72.9,68.1,29.84,ESE,113,0.9,1.8,85,0.00,,,0.00,WUHU216HW,2013-06-12 07:02:00,
2013-06-12 02:07:00,73.1,68.3,29.84,SE,135,1.1,2.0,85,0.00,,,0.00,WUHU216HW,2013-06-12 07:07:00,
2013-06-12 02:12:00,73.1,68.3,29.84,ESE,113,1.8,2.0,85,0.00,,,0.00,WUHU216HW,2013-06-12 07:12:00,
2013-06-12 02:17:00,73.1,68.3,29.84,ESE,113,1.1,2.5,85,0.00,,,0.00,WUHU216HW,2013-06-12 07:17:00,
2013-06-12 02:22:00,73.1,68.3,29.84,South,180,1.1,2.5,85,0.00,,,0.00,WUHU216HW,2013-06-12 07:22:00,
2013-06-12 02:27:00,73.1,68.3,29.84,SSE,158,1.1,2.0,85,0.00,,,0.00,WUHU216HW,2013-06-12 07:27:00,
2013-06-12 02:32:00,73.3,68.5,29.84,South,180,1.1,3.1,85,0.00,,,0.00,WUHU216HW,2013-06-12 07:32:00,
2013-06-12 02:37:00,73.4,69.0,29.84,SE,135,1.3,3.1,86,0.00,,,0.00,WUHU216HW,2013-06-12 07:37:00,
2013-06-12 02:42:00,73.4,68.7,29.84,SSW,203,2.7,2.7,85,0.00,,,0.00,WUHU216HW,2013-06-12 07:42:00,
2013-06-12 02:47:00,73.3,68.5,29.84,SSE,158,1.3,2.7,85,0.00,,,0.00,WUHU216HW,2013-06-12 07:47:00,
2013-06-12 02:52:00,73.4,69.0,29.84,SSE,158,1.1,2.7,86,0.00,,,0.00,WUHU216HW,2013-06-12 07:52:00,
2013-06-12 02:57:00,73.4,68.7,29.83,SSE,158,2.5,2.7,85,0.00,,,0.00,WUHU216HW,2013-06-12 07:57:00,
2013-06-12 03:02:00,73.4,69.0,29.84,SSE,158,0.0,2.7,86,0.00,,,0.00,WUHU216HW,2013-06-12 08:02:00,
2013-06-12 03:07:00,73.3,68.9,29.84,SSE,158,0.2,1.8,86,0.00,,,0.00,WUHU216HW,2013-06-12 08:07:00,
2013-06-12 03:12:00,73.3,68.9,29.84,South,180,0.0,2.5,86,0.00,,,0.00,WUHU216HW,2013-06-12 08:12:00,
2013-06-12 03:17:00,73.1,68.3,29.84,South,180,0.0,2.5,85,0.00,,,0.00,WUHU216HW,2013-06-12 08:17:00,
2013-06-12 03:22:00,73.1,68.3,29.84,SSE,158,0.4,1.8,85,0.00,,,0.00,WUHU216HW,2013-06-12 08:22:00,
2013-06-12 03:27:00,73.1,68.7,29.84,SSE,158,2.2,2.2,86,0.00,,,0.00,WUHU216HW,2013-06-12 08:27:00,
2013-06-12 03:32:00,73.4,69.4,29.84,South,180,1.8,2.2,87,0.00,,,0.00,WUHU216HW,2013-06-12 08:32:00,
2013-06-12 03:37:00,73.6,69.6,29.83,SSW,203,3.4,4.5,87,0.00,,,0.00,WUHU216HW,2013-06-12 08:37:00,
2013-06-12 03:42:00,73.8,70.0,29.83,WSW,248,2.9,4.7,88,0.00,,,0.00,WUHU216HW,2013-06-12 08:42:00,
2013-06-12 03:47:00,74.0,69.9,29.83,South,180,4.3,4.7,87,0.00,,,0.00,WUHU216HW,2013-06-12 08:47:00,
2013-06-12 03:52:00,73.8,69.8,29.83,SSE,158,3.4,4.3,87,0.00,,,0.00,WUHU216HW,2013-06-12 08:52:00,
2013-06-12 03:57:00,73.8,69.8,29.83,SSE,158,5.1,5.1,87,0.00,,,0.00,WUHU216HW,2013-06-12 08:57:00,
2013-06-12 04:02:00,73.8,69.8,29.83,South,180,1.6,5.4,87,0.00,,,0.00,WUHU216HW,2013-06-12 09:02:00,
2013-06-12 04:07:00,73.8,69.8,29.83,SSW,203,1.8,5.4,87,0.00,,,0.00,WUHU216HW,2013-06-12 09:07:00,
2013-06-12 04:12:00,73.6,69.6,29.83,South,180,1.8,2.9,87,0.00,,,0.00,WUHU216HW,2013-06-12 09:12:00,
2013-06-12 04:17:00,73.6,69.6,29.83,SSE,158,1.6,4.7,87,0.00,,,0.00,WUHU216HW,2013-06-12 09:17:00,
2013-06-12 04:22:00,73.4,69.4,29.83,WSW,248,3.4,4.7,87,0.00,,,0.00,WUHU216HW,2013-06-12 09:22:00,
2013-06-12 04:27:00,73.4,69.4,29.83,SW,225,1.8,3.4,87,0.00,,,0.00,WUHU216HW,2013-06-12 09:27:00,
2013-06-12 04:32:00,73.4,69.7,29.83,SSW,203,2.0,2.5,88,0.00,,,0.00,WUHU216HW,2013-06-12 09:32:00,
2013-06-12 04:37:00,73.8,70.0,29.84,SSW,203,5.4,5.4,88,0.00,,,0.00,WUHU216HW,2013-06-12 09:37:00,
2013-06-12 04:42:00,73.8,69.8,29.84,South,180,1.8,7.2,87,0.00,,,0.00,WUHU216HW,2013-06-12 09:42:00,
2013-06-12 04:47:00,74.0,69.9,29.84,SSW,203,2.7,7.2,87,0.00,,,0.00,WUHU216HW,2013-06-12 09:47:00,
2013-06-12 04:52:00,74.2,70.1,29.84,SSW,203,3.4,7.6,87,0.00,,,0.00,WUHU216HW,2013-06-12 09:52:00,
2013-06-12 04:57:00,74.0,69.9,29.84,South,180,4.9,7.6,87,0.00,,,0.00,WUHU216HW,2013-06-12 09:57:00,
2013-06-12 05:02:00,73.8,69.8,29.84,South,180,3.1,5.4,87,0.00,,,0.00,WUHU216HW,2013-06-12 10:02:00,
2013-06-12 05:07:00,73.6,69.6,29.84,SW,225,1.1,5.4,87,0.00,,,0.00,WUHU216HW,2013-06-12 10:07:00,
2013-06-12 05:12:00,73.6,69.6,29.84,South,180,1.1,4.0,87,0.00,,,0.00,WUHU216HW,2013-06-12 10:12:00,
2013-06-12 05:17:00,73.6,69.6,29.84,SSW,203,1.6,2.7,87,0.00,,,0.00,WUHU216HW,2013-06-12 10:17:00,
2013-06-12 05:22:00,73.6,69.6,29.84,SSW,203,0.9,3.8,87,0.00,,,0.00,WUHU216HW,2013-06-12 10:22:00,
2013-06-12 05:27:00,73.6,69.2,29.84,SSW,203,1.3,3.8,86,0.00,,,0.00,WUHU216HW,2013-06-12 10:27:00,
2013-06-12 05:32:00,73.6,69.6,29.84,SSE,158,4.0,4.0,87,0.00,,,0.00,WUHU216HW,2013-06-12 10:32:00,
2013-06-12 05:37:00,73.6,69.2,29.84,SSE,158,0.2,4.0,86,0.00,,,0.00,WUHU216HW,2013-06-12 10:37:00,
2013-06-12 05:42:00,73.4,69.0,29.84,South,180,2.2,3.4,86,0.00,,,0.00,WUHU216HW,2013-06-12 10:42:00,
2013-06-12 05:47:00,73.3,69.2,29.84,SW,225,0.9,2.2,87,0.00,,,0.00,WUHU216HW,2013-06-12 10:47:00,
2013-06-12 05:52:00,73.1,68.7,29.84,SSE,158,0.0,2.0,86,0.00,,,0.00,WUHU216HW,2013-06-12 10:52:00,
2013-06-12 05:57:00,72.9,68.1,29.84,SSE,158,0.0,2.0,85,0.00,,,0.00,WUHU216HW,2013-06-12 10:57:00,
2013-06-12 06:02:00,72.5,68.1,29.84,SE,135,0.4,1.1,86,0.00,,,0.00,WUHU216HW,2013-06-12 11:02:00,
2013-06-12 06:07:00,72.5,68.1,29.84,SE,135,0.9,1.1,86,0.00,,,0.00,WUHU216HW,2013-06-12 11:07:00,
2013-06-12 06:12:00,72.4,68.0,29.84,SE,135,1.3,1.3,86,0.00,,,0.00,WUHU216HW,2013-06-12 11:12:00,
2013-06-12 06:17:00,72.4,68.3,29.84,SE,135,0.4,1.3,87,0.00,,,0.00,WUHU216HW,2013-06-12 11:17:00,
2013-06-12 06:22:00,72.4,68.3,29.84,SE,135,0.0,1.8,87,0.00,,,0.00,WUHU216HW,2013-06-12 11:22:00,
2013-06-12 06:27:00,72.2,68.1,29.85,SE,135,1.3,1.8,87,0.00,,,0.00,WUHU216HW,2013-06-12 11:27:00,
2013-06-12 06:32:00,72.2,68.1,29.85,SE,135,0.7,1.8,87,0.00,,,0.00,WUHU216HW,2013-06-12 11:32:00,
2013-06-12 06:37:00,72.2,68.4,29.85,SE,135,0.0,1.8,88,0.00,,,0.00,WUHU216HW,2013-06-12 11:37:00,
2013-06-12 06:42:00,72.2,68.4,29.85,SSE,158,1.6,2.5,88,0.00,,,0.00,WUHU216HW,2013-06-12 11:42:00,
2013-06-12 06:47:00,72.4,68.6,29.85,SE,135,2.0,2.5,88,0.00,,,0.00,WUHU216HW,2013-06-12 11:47:00,
2013-06-12 06:52:00,72.4,68.6,29.85,SSE,158,0.7,3.1,88,0.00,,,0.00,WUHU216HW,2013-06-12 11:52:00,
2013-06-12 06:57:00,72.7,68.9,29.85,SE,135,2.0,3.1,88,0.00,,,0.00,WUHU216HW,2013-06-12 11:57:00,
2013-06-12 07:02:00,72.9,69.1,29.85,South,180,2.2,3.1,88,0.00,,,0.00,WUHU216HW,2013-06-12 12:02:00,
2013-06-12 07:07:00,73.1,70.0,29.84,SSE,158,4.7,4.7,90,0.00,,,0.00,WUHU216HW,2013-06-12 12:07:00,
2013-06-12 07:12:00,73.4,70.4,29.85,South,180,1.1,4.7,90,0.00,,,0.00,WUHU216HW,2013-06-12 12:12:00,
2013-06-12 07:17:00,74.0,70.6,29.85,South,180,2.5,3.8,89,0.00,,,0.00,WUHU216HW,2013-06-12 12:17:00,
2013-06-12 07:22:00,74.5,71.1,29.85,SSW,203,6.3,7.8,89,0.00,,,0.00,WUHU216HW,2013-06-12 12:22:00,
2013-06-12 07:27:00,75.2,71.5,29.85,South,180,2.0,7.8,88,0.00,,,0.00,WUHU216HW,2013-06-12 12:27:00,
2013-06-12 07:32:00,75.8,71.4,29.85,South,180,2.5,8.3,86,0.00,,,0.00,WUHU216HW,2013-06-12 12:32:00,
2013-06-12 07:37:00,76.7,71.8,29.85,South,180,4.0,8.3,85,0.00,,,0.00,WUHU216HW,2013-06-12 12:37:00,
2013-06-12 07:42:00,77.0,71.5,29.85,SSW,203,2.5,4.7,83,0.00,,,0.00,WUHU216HW,2013-06-12 12:42:00,
2013-06-12 07:47:00,76.7,71.1,29.85,SE,135,1.6,4.7,83,0.00,,,0.00,WUHU216HW,2013-06-12 12:47:00,
2013-06-12 07:52:00,76.3,70.8,29.86,SSW,203,1.8,5.4,83,0.00,,,0.00,WUHU216HW,2013-06-12 12:52:00,
2013-06-12 07:57:00,76.1,71.0,29.86,SSE,158,3.1,5.4,84,0.00,,,0.00,WUHU216HW,2013-06-12 12:57:00,
2013-06-12 08:02:00,76.0,70.8,29.86,SSE,158,4.7,5.6,84,0.00,,,0.00,WUHU216HW,2013-06-12 13:02:00,
2013-06-12 08:07:00,76.0,70.8,29.86,SSE,158,1.8,5.6,84,0.00,,,0.00,WUHU216HW,2013-06-12 13:07:00,
2013-06-12 08:12:00,76.1,71.0,29.86,SE,135,4.0,5.4,84,0.00,,,0.00,WUHU216HW,2013-06-12 13:12:00,
2013-06-12 08:17:00,76.1,71.0,29.86,SE,135,3.4,6.3,84,0.00,,,0.00,WUHU216HW,2013-06-12 13:17:00,
2013-06-12 08:22:00,76.3,70.8,29.87,South,180,2.9,6.5,83,0.00,,,0.00,WUHU216HW,2013-06-12 13:22:00,
2013-06-12 08:27:00,77.0,71.5,29.87,South,180,2.5,6.5,83,0.00,,,0.00,WUHU216HW,2013-06-12 13:27:00,
2013-06-12 08:32:00,79.7,72.7,29.87,SE,135,3.4,6.9,79,0.00,,,0.00,WUHU216HW,2013-06-12 13:32:00,
2013-06-12 08:37:00,82.1,73.8,29.87,SSE,158,4.5,6.9,76,0.00,,,0.00,WUHU216HW,2013-06-12 13:37:00,
2013-06-12 08:42:00,83.0,73.5,29.87,SSE,158,8.5,8.5,73,0.00,,,0.00,WUHU216HW,2013-06-12 13:42:00,
2013-06-12 08:47:00,83.5,72.7,29.88,SSW,203,7.2,11.0,70,0.00,,,0.00,WUHU216HW,2013-06-12 13:47:00,
2013-06-12 08:52:00,83.5,72.3,29.88,South,180,2.9,11.0,69,0.00,,,0.00,WUHU216HW,2013-06-12 13:52:00,
2013-06-12 08:57:00,83.5,72.7,29.88,SSE,158,3.6,8.1,70,0.00,,,0.00,WUHU216HW,2013-06-12 13:57:00,
2013-06-12 09:02:00,83.9,72.6,29.88,SW,225,4.5,6.7,69,0.00,,,0.00,WUHU216HW,2013-06-12 14:02:00,
2013-06-12 09:07:00,85.3,72.7,29.87,South,180,5.6,8.9,66,0.00,,,0.00,WUHU216HW,2013-06-12 14:07:00,
2013-06-12 09:12:00,85.3,73.2,29.88,SW,225,4.9,8.9,67,0.00,,,0.00,WUHU216HW,2013-06-12 14:12:00,
2013-06-12 09:17:00,85.7,72.5,29.88,SSW,203,2.7,12.3,65,0.00,,,0.00,WUHU216HW,2013-06-12 14:17:00,
2013-06-12 09:22:00,84.6,71.6,29.88,SSW,203,3.4,12.3,65,0.00,,,0.00,WUHU216HW,2013-06-12 14:22:00,
2013-06-12 09:27:00,83.7,71.1,29.88,SW,225,3.6,8.5,66,0.00,,,0.00,WUHU216HW,2013-06-12 14:27:00,
2013-06-12 09:32:00,83.2,71.5,29.88,South,180,2.7,8.5,68,0.00,,,0.00,WUHU216HW,2013-06-12 14:32:00,
2013-06-12 09:37:00,86.4,73.3,29.88,SSW,203,2.7,6.7,65,0.00,,,0.00,WUHU216HW,2013-06-12 14:37:00,
2013-06-12 09:42:00,88.2,72.7,29.88,SSE,158,5.6,6.9,60,0.00,,,0.00,WUHU216HW,2013-06-12 14:42:00,
2013-06-12 09:47:00,88.9,72.3,29.88,SW,225,6.3,6.9,58,0.00,,,0.00,WUHU216HW,2013-06-12 14:47:00,
2013-06-12 09:52:00,88.2,72.2,29.88,SSE,158,4.5,6.3,59,0.00,,,0.00,WUHU216HW,2013-06-12 14:52:00,
2013-06-12 09:57:00,89.1,71.9,29.88,SSE,158,5.4,9.8,57,0.00,,,0.00,WUHU216HW,2013-06-12 14:57:00,
2013-06-12 10:02:00,89.8,72.0,29.88,SSE,158,5.4,9.8,56,0.00,,,0.00,WUHU216HW,2013-06-12 15:02:00,
2013-06-12 10:07:00,90.4,71.9,29.88,SSW,203,8.3,8.3,55,0.00,,,0.00,WUHU216HW,2013-06-12 15:07:00,
2013-06-12 10:12:00,89.6,71.8,29.87,SSE,158,2.5,8.3,56,0.00,,,0.00,WUHU216HW,2013-06-12 15:12:00,
2013-06-12 10:17:00,89.6,71.8,29.88,SE,135,6.0,7.6,56,0.00,,,0.00,WUHU216HW,2013-06-12 15:17:00,
2013-06-12 10:22:00,90.4,71.4,29.88,South,180,6.0,8.9,54,0.00,,,0.00,WUHU216HW,2013-06-12 15:22:00,
2013-06-12 10:27:00,91.6,72.0,29.87,SE,135,6.3,8.9,53,0.00,,,0.00,WUHU216HW,2013-06-12 15:27:00,
2013-06-12 10:32:00,92.3,71.6,29.87,SSW,203,6.3,7.4,51,0.00,,,0.00,WUHU216HW,2013-06-12 15:32:00,
2013-06-12 10:37:00,93.1,72.2,29.87,SSE,158,6.5,7.4,51,0.00,,,0.00,WUHU216HW,2013-06-12 15:37:00,
2013-06-12 10:42:00,92.5,71.2,29.87,South,180,9.8,9.8,50,0.00,,,0.00,WUHU216HW,2013-06-12 15:42:00,
2013-06-12 10:47:00,90.4,70.8,29.87,SSE,158,7.6,9.8,53,0.00,,,0.00,WUHU216HW,2013-06-12 15:47:00,
2013-06-12 10:52:00,91.1,71.5,29.87,ESE,113,6.5,8.5,53,0.00,,,0.00,WUHU216HW,2013-06-12 15:52:00,
2013-06-12 10:57:00,91.8,72.2,29.87,SSW,203,2.5,6.5,53,0.00,,,0.00,WUHU216HW,2013-06-12 15:57:00,
2013-06-12 11:02:00,93.6,72.2,29.86,SE,135,5.4,6.5,50,0.00,,,0.00,WUHU216HW,2013-06-12 16:02:00,
2013-06-12 11:07:00,93.6,72.2,29.86,ESE,113,4.7,6.3,50,0.00,,,0.00,WUHU216HW,2013-06-12 16:07:00,
2013-06-12 11:12:00,94.5,71.7,29.87,SSW,203,3.8,6.3,48,0.00,,,0.00,WUHU216HW,2013-06-12 16:12:00,
2013-06-12 11:17:00,94.3,70.9,29.87,ESE,113,5.1,6.9,47,0.00,,,0.00,WUHU216HW,2013-06-12 16:17:00,
2013-06-12 11:22:00,94.5,71.1,29.87,South,180,3.6,6.9,47,0.00,,,0.00,WUHU216HW,2013-06-12 16:22:00,
2013-06-12 11:27:00,95.6,72.8,29.87,SSE,158,2.5,5.8,48,0.00,,,0.00,WUHU216HW,2013-06-12 16:27:00,
2013-06-12 11:32:00,95.9,71.1,29.87,SE,135,8.3,8.3,45,0.00,,,0.00,WUHU216HW,2013-06-12 16:32:00,
2013-06-12 11:37:00,92.2,69.0,29.87,SSE,158,9.8,13.4,47,0.00,,,0.00,WUHU216HW,2013-06-12 16:37:00,
2013-06-12 11:42:00,90.4,69.8,29.87,SW,225,4.0,13.4,51,0.00,,,0.00,WUHU216HW,2013-06-12 16:42:00,
2013-06-12 11:47:00,90.4,70.3,29.87,SSE,158,7.4,7.4,52,0.00,,,0.00,WUHU216HW,2013-06-12 16:47:00,
2013-06-12 11:52:00,90.0,70.6,29.88,SW,225,2.9,7.4,53,0.00,,,0.00,WUHU216HW,2013-06-12 16:52:00,
2013-06-12 11:57:00,89.6,69.7,29.88,WSW,248,8.3,8.3,52,0.00,,,0.00,WUHU216HW,2013-06-12 16:57:00,
2013-06-12 12:02:00,89.3,69.8,29.88,SW,225,10.3,10.3,53,0.00,,,0.00,WUHU216HW,2013-06-12 17:02:00,
2013-06-12 12:07:00,88.9,70.1,29.88,WSW,248,3.6,10.5,54,0.00,,,0.00,WUHU216HW,2013-06-12 17:07:00,
2013-06-12 12:12:00,92.0,72.4,29.88,SSE,158,4.3,10.5,53,0.00,,,0.00,WUHU216HW,2013-06-12 17:12:00,
2013-06-12 12:17:00,94.7,71.3,29.87,SE,135,5.4,8.5,47,0.00,,,0.00,WUHU216HW,2013-06-12 17:17:00,
2013-06-12 12:22:00,93.2,69.8,29.88,SSW,203,2.5,8.7,47,0.00,,,0.00,WUHU216HW,2013-06-12 17:22:00,
2013-06-12 12:27:00,91.1,70.4,29.88,South,180,5.1,8.7,51,0.00,,,0.00,WUHU216HW,2013-06-12 17:27:00,
2013-06-12 12:32:00,90.7,70.7,29.87,WSW,248,4.7,8.3,52,0.00,,,0.00,WUHU216HW,2013-06-12 17:32:00,
2013-06-12 12:37:00,92.0,71.8,29.87,WSW,248,8.9,8.9,52,0.00,,,0.00,WUHU216HW,2013-06-12 17:37:00,
2013-06-12 12:42:00,92.9,71.5,29.87,SSW,203,5.6,8.9,50,0.00,,,0.00,WUHU216HW,2013-06-12 17:42:00,
2013-06-12 12:47:00,94.0,70.6,29.87,SSE,158,2.7,7.6,47,0.00,,,0.00,WUHU216HW,2013-06-12 17:47:00,
2013-06-12 12:52:00,94.3,70.3,29.87,SSE,158,8.3,9.4,46,0.00,,,0.00,WUHU216HW,2013-06-12 17:52:00,
2013-06-12 12:57:00,94.5,71.1,29.87,SW,225,2.9,9.4,47,0.00,,,0.00,WUHU216HW,2013-06-12 17:57:00,
2013-06-12 13:02:00,96.1,72.6,29.87,WSW,248,4.3,7.4,47,0.00,,,0.00,WUHU216HW,2013-06-12 18:02:00,
2013-06-12 13:07:00,97.2,70.9,29.87,SSE,158,7.2,7.4,43,0.00,,,0.00,WUHU216HW,2013-06-12 18:07:00,
2013-06-12 13:12:00,96.3,70.7,29.86,SSW,203,5.8,7.2,44,0.00,,,0.00,WUHU216HW,2013-06-12 18:12:00,
2013-06-12 13:17:00,95.4,70.7,29.86,SSE,158,2.9,11.0,45,0.00,,,0.00,WUHU216HW,2013-06-12 18:17:00,
2013-06-12 13:22:00,95.0,70.9,29.86,SSW,203,2.5,11.0,46,0.00,,,0.00,WUHU216HW,2013-06-12 18:22:00,
2013-06-12 13:27:00,95.0,70.3,29.86,SSE,158,5.1,6.5,45,0.00,,,0.00,WUHU216HW,2013-06-12 18:27:00,
2013-06-12 13:32:00,94.7,70.7,29.86,South,180,4.3,8.5,46,0.00,,,0.00,WUHU216HW,2013-06-12 18:32:00,
2013-06-12 13:37:00,94.7,69.9,29.86,South,180,4.5,8.5,45,0.00,,,0.00,WUHU216HW,2013-06-12 18:37:00,
2013-06-12 13:42:00,93.6,69.0,29.86,SSE,158,5.8,12.1,45,0.00,,,0.00,WUHU216HW,2013-06-12 18:42:00,
2013-06-12 13:47:00,93.6,69.6,29.86,SSE,158,9.2,12.1,46,0.00,,,0.00,WUHU216HW,2013-06-12 18:47:00,
2013-06-12 13:52:00,94.3,70.3,29.86,SW,225,8.5,9.2,46,0.00,,,0.00,WUHU216HW,2013-06-12 18:52:00,
2013-06-12 13:57:00,95.2,71.1,29.86,WSW,248,6.3,9.8,46,0.00,,,0.00,WUHU216HW,2013-06-12 18:57:00,
2013-06-12 14:02:00,95.8,70.3,29.85,SSE,158,5.8,9.8,44,0.00,,,0.00,WUHU216HW,2013-06-12 19:02:00,
2013-06-12 14:07:00,95.8,71.7,29.85,SW,225,2.7,8.5,46,0.00,,,0.00,WUHU216HW,2013-06-12 19:07:00,
2013-06-12 14:12:00,96.8,71.9,29.85,SW,225,8.3,8.5,45,0.00,,,0.00,WUHU216HW,2013-06-12 19:12:00,
2013-06-12 14:17:00,97.2,70.9,29.85,South,180,3.1,8.9,43,0.00,,,0.00,WUHU216HW,2013-06-12 19:17:00,
2013-06-12 14:22:00,97.7,71.4,29.84,SW,225,3.4,8.9,43,0.00,,,0.00,WUHU216HW,2013-06-12 19:22:00,
2013-06-12 14:27:00,97.2,70.2,29.84,South,180,6.7,8.3,42,0.00,,,0.00,WUHU216HW,2013-06-12 19:27:00,
2013-06-12 14:32:00,95.6,70.1,29.84,SSW,203,4.5,6.7,44,0.00,,,0.00,WUHU216HW,2013-06-12 19:32:00,
2013-06-12 14:37:00,94.5,69.8,29.84,SSE,158,2.7,6.5,45,0.00,,,0.00,WUHU216HW,2013-06-12 19:37:00,
2013-06-12 14:42:00,94.1,69.5,29.84,SW,225,6.9,6.9,45,0.00,,,0.00,WUHU216HW,2013-06-12 19:42:00,
2013-06-12 14:47:00,94.7,69.9,29.84,SW,225,1.3,8.3,45,0.00,,,0.00,WUHU216HW,2013-06-12 19:47:00,
2013-06-12 14:52:00,95.6,70.1,29.83,SSW,203,4.7,8.5,44,0.00,,,0.00,WUHU216HW,2013-06-12 19:52:00,
2013-06-12 14:57:00,95.6,69.5,29.83,South,180,6.5,8.5,43,0.00,,,0.00,WUHU216HW,2013-06-12 19:57:00,
2013-06-12 15:02:00,95.4,69.3,29.83,SSE,158,5.4,6.9,43,0.00,,,0.00,WUHU216HW,2013-06-12 20:02:00,
2013-06-12 15:07:00,94.1,68.8,29.83,SSE,158,3.1,6.9,44,0.00,,,0.00,WUHU216HW,2013-06-12 20:07:00,
2013-06-12 15:12:00,94.0,68.6,29.83,SSE,158,3.4,6.7,44,0.00,,,0.00,WUHU216HW,2013-06-12 20:12:00,
2013-06-12 15:17:00,93.1,68.4,29.82,SSE,158,2.5,6.7,45,0.00,,,0.00,WUHU216HW,2013-06-12 20:17:00,
2013-06-12 15:22:00,93.2,69.2,29.82,SW,225,5.8,6.3,46,0.00,,,0.00,WUHU216HW,2013-06-12 20:22:00,
2013-06-12 15:27:00,94.3,69.6,29.82,SSE,158,2.5,7.2,45,0.00,,,0.00,WUHU216HW,2013-06-12 20:27:00,
2013-06-12 15:32:00,93.8,68.4,29.82,WSW,248,4.3,7.2,44,0.00,,,0.00,WUHU216HW,2013-06-12 20:32:00,
2013-06-12 15:37:00,93.4,69.4,29.82,SSW,203,3.8,5.8,46,0.00,,,0.00,WUHU216HW,2013-06-12 20:37:00,
2013-06-12 15:42:00,93.4,68.8,29.81,SSE,158,5.6,5.6,45,0.00,,,0.00,WUHU216HW,2013-06-12 20:42:00,
2013-06-12 15:47:00,92.9,69.0,29.81,East,90,4.3,5.6,46,0.00,,,0.00,WUHU216HW,2013-06-12 20:47:00,
2013-06-12 15:52:00,92.7,68.1,29.81,ESE,113,4.7,5.4,45,0.00,,,0.00,WUHU216HW,2013-06-12 20:52:00,
2013-06-12 15:57:00,92.9,69.0,29.81,SW,225,3.6,6.3,46,0.00,,,0.00,WUHU216HW,2013-06-12 20:57:00,
2013-06-12 16:02:00,93.1,69.0,29.81,SSE,158,3.4,6.3,46,0.00,,,0.00,WUHU216HW,2013-06-12 21:02:00,
2013-06-12 16:07:00,93.1,69.0,29.81,ESE,113,3.1,4.9,46,0.00,,,0.00,WUHU216HW,2013-06-12 21:07:00,
2013-06-12 16:12:00,93.1,68.4,29.81,South,180,5.4,5.4,45,0.00,,,0.00,WUHU216HW,2013-06-12 21:12:00,
2013-06-12 16:17:00,93.4,68.8,29.80,SSW,203,0.9,6.0,45,0.00,,,0.00,WUHU216HW,2013-06-12 21:17:00,
2013-06-12 16:22:00,94.0,69.3,29.80,SSE,158,4.0,6.0,45,0.00,,,0.00,WUHU216HW,2013-06-12 21:22:00,
2013-06-12 16:27:00,93.8,69.1,29.80,East,90,5.1,6.0,45,0.00,,,0.00,WUHU216HW,2013-06-12 21:27:00,
2013-06-12 16:32:00,93.6,69.6,29.79,SSE,158,5.4,6.3,46,0.00,,,0.00,WUHU216HW,2013-06-12 21:32:00,
2013-06-12 16:37:00,93.2,68.6,29.79,SSE,158,3.8,8.3,45,0.00,,,0.00,WUHU216HW,2013-06-12 21:37:00,
2013-06-12 16:42:00,93.2,68.6,29.79,SSW,203,2.5,8.3,45,0.00,,,0.00,WUHU216HW,2013-06-12 21:42:00,
2013-06-12 16:47:00,93.6,69.6,29.79,SSE,158,3.8,5.4,46,0.00,,,0.00,WUHU216HW,2013-06-12 21:47:00,
2013-06-12 16:52:00,93.6,69.0,29.79,South,180,2.5,5.4,45,0.00,,,0.00,WUHU216HW,2013-06-12 21:52:00,
2013-06-12 16:57:00,93.1,69.0,29.79,SSE,158,5.1,6.9,46,0.00,,,0.00,WUHU216HW,2013-06-12 21:57:00,
2013-06-12 17:02:00,92.5,68.6,29.79,South,180,5.4,7.2,46,0.00,,,0.00,WUHU216HW,2013-06-12 22:02:00,
2013-06-12 17:07:00,92.3,67.8,29.78,SSW,203,2.7,7.2,45,0.00,,,0.00,WUHU216HW,2013-06-12 22:07:00,
2013-06-12 17:12:00,92.5,69.2,29.78,SSE,158,4.3,4.3,47,0.00,,,0.00,WUHU216HW,2013-06-12 22:12:00,
2013-06-12 17:17:00,92.9,69.0,29.78,SSW,203,5.4,9.2,46,0.00,,,0.00,WUHU216HW,2013-06-12 22:17:00,
2013-06-12 17:22:00,92.9,68.2,29.78,SSW,203,3.4,9.2,45,0.00,,,0.00,WUHU216HW,2013-06-12 22:22:00,
2013-06-12 17:27:00,92.9,69.0,29.78,ESE,113,2.9,8.5,46,0.00,,,0.00,WUHU216HW,2013-06-12 22:27:00,
2013-06-12 17:32:00,93.4,68.8,29.78,SSE,158,2.9,6.7,45,0.00,,,0.00,WUHU216HW,2013-06-12 22:32:00,
2013-06-12 17:37:00,94.0,69.3,29.78,SSE,158,7.2,7.2,45,0.00,,,0.00,WUHU216HW,2013-06-12 22:37:00,
2013-06-12 17:42:00,92.3,71.6,29.78,SSE,158,5.4,8.9,51,0.00,,,0.00,WUHU216HW,2013-06-12 22:42:00,
2013-06-12 17:47:00,90.4,71.4,29.79,South,180,7.6,8.9,54,0.00,,,0.00,WUHU216HW,2013-06-12 22:47:00,
2013-06-12 17:52:00,85.5,71.9,29.79,South,180,7.8,10.1,64,0.03,,,0.02,WUHU216HW,2013-06-12 22:52:00,
2013-06-12 17:57:00,82.4,71.2,29.78,South,180,0.7,10.1,69,0.05,,,0.05,WUHU216HW,2013-06-12 22:57:00,
2013-06-12 18:02:00,81.5,72.0,29.78,SSW,203,2.2,5.6,73,0.05,,,0.05,WUHU216HW,2013-06-12 23:02:00,
2013-06-12 18:07:00,81.2,72.1,29.78,South,180,4.0,4.0,74,0.05,,,0.05,WUHU216HW,2013-06-12 23:07:00,
2013-06-12 18:12:00,81.4,72.7,29.78,SSW,203,0.2,4.0,75,0.05,,,0.05,WUHU216HW,2013-06-12 23:12:00,
2013-06-12 18:17:00,81.5,73.7,29.79,SSE,158,1.1,3.8,77,0.05,,,0.05,WUHU216HW,2013-06-12 23:17:00,
2013-06-12 18:22:00,81.9,74.8,29.79,SE,135,1.8,2.9,79,0.05,,,0.05,WUHU216HW,2013-06-12 23:22:00,
2013-06-12 18:27:00,82.4,73.7,29.79,South,180,2.9,4.0,75,0.05,,,0.05,WUHU216HW,2013-06-12 23:27:00,
2013-06-12 18:32:00,82.8,73.6,29.79,South,180,3.4,6.9,74,0.05,,,0.05,WUHU216HW,2013-06-12 23:32:00,
2013-06-12 18:37:00,82.8,73.3,29.79,SSW,203,1.8,6.9,73,0.05,,,0.05,WUHU216HW,2013-06-12 23:37:00,
2013-06-12 18:42:00,83.3,73.4,29.79,SE,135,1.6,5.4,72,0.05,,,0.05,WUHU216HW,2013-06-12 23:42:00,
2013-06-12 18:47:00,83.9,73.4,29.79,South,180,3.6,5.8,71,0.04,,,0.05,WUHU216HW,2013-06-12 23:47:00,
2013-06-12 18:52:00,84.4,73.2,29.79,SE,135,3.6,5.8,69,0.02,,,0.05,WUHU216HW,2013-06-12 23:52:00,
2013-06-12 18:57:00,85.0,73.3,29.79,SSE,158,3.6,4.7,68,0.00,,,0.05,WUHU216HW,2013-06-12 23:57:00,
2013-06-12 19:02:00,85.5,73.4,29.79,SSE,158,1.8,4.7,67,0.00,,,0.05,WUHU216HW,2013-06-13 00:02:00,
2013-06-12 19:07:00,85.7,72.5,29.79,SSE,158,3.6,5.4,65,0.00,,,0.05,WUHU216HW,2013-06-13 00:07:00,
2013-06-12 19:12:00,85.3,72.2,29.80,SSE,158,3.6,5.6,65,0.00,,,0.05,WUHU216HW,2013-06-13 00:12:00,
2013-06-12 19:17:00,85.1,72.0,29.80,SE,135,3.1,5.6,65,0.00,,,0.05,WUHU216HW,2013-06-13 00:17:00,
2013-06-12 19:22:00,85.0,72.8,29.80,South,180,4.7,5.6,67,0.00,,,0.05,WUHU216HW,2013-06-13 00:22:00,
2013-06-12 19:27:00,84.6,72.5,29.79,SSE,158,3.4,7.8,67,0.00,,,0.05,WUHU216HW,2013-06-13 00:27:00,
2013-06-12 19:32:00,84.2,72.1,29.80,ESE,113,2.5,7.8,67,0.00,,,0.05,WUHU216HW,2013-06-13 00:32:00,
2013-06-12 19:37:00,83.9,71.7,29.80,South,180,1.1,4.5,67,0.00,,,0.05,WUHU216HW,2013-06-13 00:37:00,
2013-06-12 19:42:00,83.7,71.6,29.80,SE,135,3.1,3.4,67,0.00,,,0.05,WUHU216HW,2013-06-13 00:42:00,
2013-06-12 19:47:00,83.5,71.4,29.80,SE,135,4.0,4.0,67,0.00,,,0.05,WUHU216HW,2013-06-13 00:47:00,
2013-06-12 19:52:00,83.5,71.4,29.80,SSE,158,2.7,4.0,67,0.00,,,0.05,WUHU216HW,2013-06-13 00:52:00,
2013-06-12 19:57:00,83.3,71.2,29.81,SSW,203,4.0,5.4,67,0.00,,,0.05,WUHU216HW,2013-06-13 00:57:00,
2013-06-12 20:02:00,83.2,71.0,29.81,SE,135,3.1,6.5,67,0.00,,,0.05,WUHU216HW,2013-06-13 01:02:00,
2013-06-12 20:07:00,83.0,70.8,29.81,South,180,3.4,6.5,67,0.00,,,0.05,WUHU216HW,2013-06-13 01:07:00,
2013-06-12 20:12:00,82.8,70.7,29.81,SE,135,2.2,5.6,67,0.00,,,0.05,WUHU216HW,2013-06-13 01:12:00,
2013-06-12 20:17:00,82.4,70.7,29.81,SSE,158,1.1,5.6,68,0.00,,,0.05,WUHU216HW,2013-06-13 01:17:00,
2013-06-12 20:22:00,82.3,70.1,29.81,SSE,158,2.5,5.4,67,0.00,,,0.05,WUHU216HW,2013-06-13 01:22:00,
2013-06-12 20:27:00,81.9,69.9,29.81,SE,135,4.3,5.4,67,0.00,,,0.05,WUHU216HW,2013-06-13 01:27:00,
2013-06-12 20:32:00,81.7,70.1,29.81,SSW,203,4.5,5.4,68,0.00,,,0.05,WUHU216HW,2013-06-13 01:32:00,
2013-06-12 20:37:00,81.5,69.9,29.81,SSW,203,3.1,5.4,68,0.00,,,0.05,WUHU216HW,2013-06-13 01:37:00,
2013-06-12 20:42:00,81.2,70.0,29.81,SSW,203,4.0,6.3,69,0.00,,,0.05,WUHU216HW,2013-06-13 01:42:00,
2013-06-12 20:47:00,81.0,69.9,29.81,South,180,2.5,6.3,69,0.00,,,0.05,WUHU216HW,2013-06-13 01:47:00,
2013-06-12 20:52:00,80.6,69.6,29.81,SSW,203,1.3,4.5,69,0.00,,,0.05,WUHU216HW,2013-06-13 01:52:00,
2013-06-12 20:57:00,80.5,69.4,29.81,South,180,0.4,4.5,69,0.00,,,0.05,WUHU216HW,2013-06-13 01:57:00,
2013-06-12 21:02:00,80.3,69.2,29.81,SW,225,0.7,3.1,69,0.00,,,0.05,WUHU216HW,2013-06-13 02:02:00,
2013-06-12 21:07:00,79.9,69.3,29.81,SW,225,1.6,3.1,70,0.00,,,0.05,WUHU216HW,2013-06-13 02:07:00,
2013-06-12 21:12:00,79.7,69.1,29.81,South,180,4.0,4.0,70,0.00,,,0.05,WUHU216HW,2013-06-13 02:12:00,
2013-06-12 21:17:00,79.6,68.9,29.81,South,180,4.5,4.7,70,0.00,,,0.05,WUHU216HW,2013-06-13 02:17:00,
2013-06-12 21:22:00,79.4,69.1,29.81,South,180,2.2,4.7,71,0.00,,,0.05,WUHU216HW,2013-06-13 02:22:00,
2013-06-12 21:27:00,79.2,68.9,29.81,SW,225,0.9,2.5,71,0.00,,,0.05,WUHU216HW,2013-06-13 02:27:00,
2013-06-12 21:32:00,78.8,68.6,29.82,SSE,158,1.6,4.0,71,0.00,,,0.05,WUHU216HW,2013-06-13 02:32:00,
2013-06-12 21:37:00,78.7,68.9,29.82,South,180,1.8,4.0,72,0.00,,,0.05,WUHU216HW,2013-06-13 02:37:00,
2013-06-12 21:42:00,78.5,68.7,29.82,SSE,158,1.3,2.5,72,0.00,,,0.05,WUHU216HW,2013-06-13 02:42:00,
2013-06-12 21:47:00,78.1,68.8,29.82,South,180,2.5,2.5,73,0.00,,,0.05,WUHU216HW,2013-06-13 02:47:00,
2013-06-12 21:52:00,78.1,68.8,29.82,SE,135,1.1,2.7,73,0.00,,,0.05,WUHU216HW,2013-06-13 02:52:00,
2013-06-12 21:57:00,77.9,68.6,29.83,SSE,158,0.7,2.7,73,0.00,,,0.05,WUHU216HW,2013-06-13 02:57:00,
2013-06-12 22:02:00,77.8,68.8,29.83,South,180,2.0,2.5,74,0.00,,,0.05,WUHU216HW,2013-06-13 03:02:00,
2013-06-12 22:07:00,77.6,69.0,29.83,South,180,2.2,4.7,75,0.00,,,0.05,WUHU216HW,2013-06-13 03:07:00,
2013-06-12 22:12:00,77.6,69.0,29.84,SSE,158,1.8,4.7,75,0.00,,,0.05,WUHU216HW,2013-06-13 03:12:00,
2013-06-12 22:17:00,77.6,69.0,29.84,SSW,203,1.8,2.9,75,0.00,,,0.05,WUHU216HW,2013-06-13 03:17:00,
2013-06-12 22:22:00,77.4,68.9,29.84,South,180,1.6,3.4,75,0.00,,,0.05,WUHU216HW,2013-06-13 03:22:00,
2013-06-12 22:27:00,77.4,68.9,29.84,South,180,2.2,3.4,75,0.00,,,0.05,WUHU216HW,2013-06-13 03:27:00,
2013-06-12 22:32:00,77.4,68.9,29.84,South,180,0.0,3.4,75,0.00,,,0.05,WUHU216HW,2013-06-13 03:32:00,
2013-06-12 22:37:00,77.4,69.2,29.84,SSE,158,1.1,2.5,76,0.00,,,0.05,WUHU216HW,2013-06-13 03:37:00,
2013-06-12 22:42:00,77.4,68.9,29.84,SE,135,1.8,2.5,75,0.00,,,0.05,WUHU216HW,2013-06-13 03:42:00,
2013-06-12 22:47:00,77.2,68.7,29.84,SSE,158,1.3,2.2,75,0.00,,,0.05,WUHU216HW,2013-06-13 03:47:00,
2013-06-12 22:52:00,77.0,68.5,29.84,SE,135,0.7,2.0,75,0.00,,,0.05,WUHU216HW,2013-06-13 03:52:00,
2013-06-12 22:57:00,77.0,68.9,29.84,South,180,2.0,2.0,76,0.00,,,0.05,WUHU216HW,2013-06-13 03:57:00,
2013-06-12 23:01:00,76.9,69.1,29.84,South,180,1.8,2.7,77,0.00,,,0.05,WUHU216HW,2013-06-13 04:01:00,
2013-06-12 23:06:00,76.7,68.5,29.84,SSE,158,3.4,3.4,76,0.00,,,0.05,WUHU216HW,2013-06-13 04:06:00,
2013-06-12 23:11:00,76.7,69.0,29.84,South,180,1.8,4.3,77,0.00,,,0.05,WUHU216HW,2013-06-13 04:11:00,
2013-06-12 23:16:00,76.9,69.1,29.84,South,180,2.9,4.5,77,0.00,,,0.05,WUHU216HW,2013-06-13 04:16:00,
2013-06-12 23:21:00,76.7,69.0,29.84,South,180,3.1,4.5,77,0.00,,,0.05,WUHU216HW,2013-06-13 04:21:00,
2013-06-12 23:26:00,76.7,69.0,29.84,ESE,113,1.8,3.1,77,0.00,,,0.05,WUHU216HW,2013-06-13 04:26:00,
2013-06-12 23:31:00,76.7,69.3,29.84,South,180,1.8,2.2,78,0.00,,,0.05,WUHU216HW,2013-06-13 04:31:00,
2013-06-12 23:36:00,76.3,68.6,29.84,South,180,0.0,1.8,77,0.00,,,0.05,WUHU216HW,2013-06-13 04:36:00,
2013-06-12 23:41:00,76.3,68.9,29.84,South,180,0.0,1.8,78,0.00,,,0.05,WUHU216HW,2013-06-13 04:41:00,
2013-06-12 23:46:00,76.1,69.6,29.84,South,180,1.8,1.8,80,0.00,,,0.05,WUHU216HW,2013-06-13 04:46:00,
2013-06-12 23:51:00,76.0,68.7,29.84,SSW,203,0.7,1.8,78,0.00,,,0.05,WUHU216HW,2013-06-13 04:51:00,
2013-06-12 23:56:00,76.0,68.7,29.84,SW,225,0.9,1.8,78,0.00,,,0.05,WUHU216HW,2013-06-13 04:56:00,